createdAt,value
2018-12-15T00:00:22.837Z,15.80
2018-12-15T00:01:22.828Z,15.60
2018-12-15T00:02:22.813Z,15.30
2018-12-15T00:03:22.808Z,15.60
2018-12-15T00:04:22.789Z,16.00
2018-12-15T00:05:22.782Z,15.10
2018-12-15T00:06:22.768Z,15.00
2018-12-15T00:07:22.764Z,14.60
2018-12-15T00:08:22.755Z,15.20
2018-12-15T00:09:22.738Z,15.10
2018-12-15T00:10:22.731Z,15.60
2018-12-15T00:11:22.718Z,14.80
2018-12-15T00:12:22.704Z,15.50
2018-12-15T00:13:22.785Z,14.90
2018-12-15T00:14:22.683Z,14.60
2018-12-15T00:15:22.673Z,15.10
2018-12-15T00:16:22.662Z,15.20
2018-12-15T00:17:22.652Z,16.00
2018-12-15T00:18:22.671Z,15.90
2018-12-15T00:19:22.637Z,15.10
2018-12-15T00:20:22.619Z,15.50
2018-12-15T00:21:22.609Z,15.10
2018-12-15T00:22:22.598Z,15.50
2018-12-15T00:23:22.588Z,15.00
2018-12-15T00:24:22.583Z,15.40
2018-12-15T00:25:22.565Z,15.70
2018-12-15T00:26:22.561Z,16.40
2018-12-15T00:27:22.541Z,15.70
2018-12-15T00:28:22.531Z,15.90
2018-12-15T00:29:22.530Z,15.60
2018-12-15T00:30:22.516Z,15.80
2018-12-15T00:31:22.502Z,15.90
2018-12-15T00:32:22.491Z,15.30
2018-12-15T00:33:22.479Z,16.20
2018-12-15T00:34:22.478Z,16.30
2018-12-15T00:35:22.468Z,15.60
2018-12-15T00:36:22.448Z,16.00
2018-12-15T00:37:22.436Z,15.80
2018-12-15T00:38:22.424Z,16.50
2018-12-15T00:39:22.424Z,15.70
2018-12-15T00:40:22.405Z,16.70
2018-12-15T00:41:22.397Z,16.00
2018-12-15T00:42:22.387Z,16.00
2018-12-15T00:43:22.374Z,15.80
2018-12-15T00:44:22.371Z,16.30
2018-12-15T00:45:22.351Z,15.80
2018-12-15T00:46:22.342Z,15.80
2018-12-15T00:47:22.334Z,16.20
2018-12-15T00:48:22.330Z,16.10
2018-12-15T00:49:22.320Z,15.70
2018-12-15T00:50:22.298Z,15.60
2018-12-15T00:51:22.288Z,15.80
2018-12-15T00:52:22.279Z,15.90
2018-12-15T00:53:22.267Z,16.10
2018-12-15T00:54:22.282Z,15.90
2018-12-15T00:55:22.245Z,15.30
2018-12-15T00:56:22.235Z,15.20
2018-12-15T00:57:22.224Z,15.40
2018-12-15T00:58:22.219Z,15.60
2018-12-15T00:59:22.206Z,15.40
2018-12-15T01:00:22.204Z,15.10
2018-12-15T01:01:22.182Z,15.20
2018-12-15T01:02:22.170Z,15.40
2018-12-15T01:03:22.161Z,15.00
2018-12-15T01:04:22.155Z,15.60
2018-12-15T01:05:22.145Z,15.30
2018-12-15T01:06:22.126Z,14.90
2018-12-15T01:07:22.120Z,15.80
2018-12-15T01:08:22.107Z,15.30
2018-12-15T01:09:22.099Z,14.60
2018-12-15T01:10:22.100Z,14.40
2018-12-15T01:11:22.077Z,13.70
2018-12-15T01:12:22.065Z,14.60
2018-12-15T01:13:22.054Z,14.40
2018-12-15T01:14:22.046Z,14.00
2018-12-15T01:15:22.040Z,14.10
2018-12-15T01:16:22.021Z,15.00
2018-12-15T01:17:22.015Z,14.00
2018-12-15T01:18:22.000Z,14.30
2018-12-15T01:19:21.991Z,14.00
2018-12-15T01:20:21.986Z,14.00
2018-12-15T01:21:21.975Z,13.90
2018-12-15T01:22:21.957Z,14.10
2018-12-15T01:23:21.950Z,14.40
2018-12-15T01:24:21.937Z,13.80
2018-12-15T01:25:21.938Z,14.00
2018-12-15T01:26:21.916Z,13.70
2018-12-15T01:27:21.909Z,13.80
2018-12-15T01:28:21.893Z,13.50
2018-12-15T01:29:21.889Z,13.30
2018-12-15T01:30:21.883Z,13.70
2018-12-15T01:31:21.865Z,13.20
2018-12-15T01:32:21.854Z,13.10
2018-12-15T01:33:21.844Z,13.20
2018-12-15T01:34:21.831Z,13.20
2018-12-15T01:35:21.831Z,13.50
2018-12-15T01:36:21.808Z,13.50
2018-12-15T01:37:21.796Z,13.00
2018-12-15T01:38:21.788Z,13.00
2018-12-15T01:39:21.783Z,13.00
2018-12-15T01:40:21.804Z,12.30
2018-12-15T01:41:21.765Z,12.50
2018-12-15T01:42:21.745Z,12.30
2018-12-15T01:43:21.737Z,12.80
2018-12-15T01:44:21.728Z,12.60
2018-12-15T01:45:21.722Z,12.30
2018-12-15T01:46:21.710Z,12.20
2018-12-15T01:47:26.951Z,12.80
2018-12-15T01:48:22.681Z,12.40
2018-12-15T01:49:21.670Z,12.80
2018-12-15T01:50:21.661Z,13.00
2018-12-15T01:51:21.663Z,12.90
2018-12-15T01:52:21.640Z,12.50
2018-12-15T01:53:21.627Z,12.50
2018-12-15T01:54:21.618Z,12.20
2018-12-15T01:55:21.607Z,12.20
2018-12-15T01:56:21.609Z,12.10
2018-12-15T01:57:21.586Z,11.30
2018-12-15T01:58:21.579Z,11.80
2018-12-15T01:59:21.568Z,11.70
2018-12-15T02:00:21.555Z,10.80
2018-12-15T02:01:21.554Z,11.20
2018-12-15T02:02:21.533Z,12.10
2018-12-15T02:03:21.521Z,11.30
2018-12-15T02:04:21.514Z,11.50
2018-12-15T02:05:21.498Z,11.10
2018-12-15T02:06:21.498Z,11.30
2018-12-15T02:07:21.480Z,11.30
2018-12-15T02:08:21.472Z,11.30
2018-12-15T02:09:21.458Z,11.60
2018-12-15T02:10:21.454Z,11.80
2018-12-15T02:11:21.447Z,11.10
2018-12-15T02:12:21.427Z,11.30
2018-12-15T02:13:21.419Z,11.20
2018-12-15T02:14:21.409Z,11.00
2018-12-15T02:15:21.396Z,11.30
2018-12-15T02:16:21.424Z,11.10
2018-12-15T02:17:21.374Z,11.20
2018-12-15T02:18:21.367Z,11.70
2018-12-15T02:19:21.355Z,11.00
2018-12-15T02:20:21.347Z,10.90
2018-12-15T02:21:21.337Z,11.40
2018-12-15T02:22:21.341Z,11.10
2018-12-15T02:23:21.310Z,11.40
2018-12-15T02:24:21.298Z,10.90
2018-12-15T02:25:21.288Z,10.80
2018-12-15T02:26:21.277Z,11.00
2018-12-15T02:27:21.276Z,10.90
2018-12-15T02:28:21.255Z,10.60
2018-12-15T02:29:21.245Z,11.20
2018-12-15T02:30:21.242Z,11.50
2018-12-15T02:31:21.227Z,11.10
2018-12-15T02:32:21.220Z,11.40
2018-12-15T02:33:21.215Z,11.40
2018-12-15T02:34:21.195Z,11.40
2018-12-15T02:35:21.180Z,10.40
2018-12-15T02:36:21.169Z,10.90
2018-12-15T02:37:21.173Z,10.90
2018-12-15T02:38:21.148Z,10.60
2018-12-15T02:39:21.141Z,11.00
2018-12-15T02:40:21.127Z,11.00
2018-12-15T02:41:21.115Z,10.60
2018-12-15T02:42:21.118Z,10.70
2018-12-15T02:43:21.101Z,10.10
2018-12-15T02:44:21.086Z,11.30
2018-12-15T02:45:21.081Z,10.70
2018-12-15T02:46:21.065Z,10.40
2018-12-15T02:47:21.063Z,10.30
2018-12-15T02:48:21.042Z,10.40
2018-12-15T02:49:21.031Z,10.60
2018-12-15T02:50:21.021Z,10.30
2018-12-15T02:51:21.014Z,10.60
2018-12-15T02:52:21.004Z,10.50
2018-12-15T02:53:20.992Z,10.10
2018-12-15T02:54:20.983Z,10.00
2018-12-15T02:55:20.969Z,10.20
2018-12-15T02:56:20.961Z,10.20
2018-12-15T02:57:20.957Z,10.20
2018-12-15T02:58:20.936Z,10.40
2018-12-15T02:59:20.926Z,10.30
2018-12-15T03:00:20.911Z,10.40
2018-12-15T03:01:20.900Z,10.40
2018-12-15T03:02:20.904Z,10.00
2018-12-15T03:03:20.879Z,9.80
2018-12-15T03:04:20.875Z,10.20
2018-12-15T03:05:20.862Z,9.90
2018-12-15T03:06:20.851Z,9.80
2018-12-15T03:07:20.862Z,10.00
2018-12-15T03:08:20.832Z,10.10
2018-12-15T03:09:20.817Z,9.70
2018-12-15T03:10:20.805Z,9.60
2018-12-15T03:11:20.794Z,9.80
2018-12-15T03:12:20.787Z,9.90
2018-12-15T03:13:20.786Z,10.30
2018-12-15T03:14:20.765Z,9.70
2018-12-15T03:15:20.751Z,9.70
2018-12-15T03:16:20.742Z,9.70
2018-12-15T03:17:20.738Z,9.40
2018-12-15T03:18:20.731Z,9.50
2018-12-15T03:19:20.709Z,10.00
2018-12-15T03:20:20.701Z,10.20
2018-12-15T03:21:20.687Z,9.20
2018-12-15T03:22:20.679Z,9.90
2018-12-15T03:23:20.673Z,10.10
2018-12-15T03:24:20.656Z,9.90
2018-12-15T03:25:20.645Z,9.70
2018-12-15T03:26:20.641Z,10.50
2018-12-15T03:27:20.739Z,10.10
2018-12-15T03:28:20.621Z,10.20
2018-12-15T03:29:20.601Z,10.10
2018-12-15T03:30:20.617Z,10.10
2018-12-15T03:31:20.589Z,10.30
2018-12-15T03:32:20.582Z,10.40
2018-12-15T03:33:20.574Z,10.00
2018-12-15T03:34:20.554Z,10.00
2018-12-15T03:35:20.538Z,9.90
2018-12-15T03:36:20.533Z,9.30
2018-12-15T03:37:20.519Z,10.00
2018-12-15T03:38:20.525Z,10.10
2018-12-15T03:39:20.495Z,10.20
2018-12-15T03:40:20.486Z,9.60
2018-12-15T03:41:20.475Z,9.90
2018-12-15T03:42:20.462Z,10.10
2018-12-15T03:43:20.463Z,10.20
2018-12-15T03:44:20.462Z,10.20
2018-12-15T03:45:20.441Z,10.40
2018-12-15T03:46:20.426Z,10.30
2018-12-15T03:47:20.417Z,10.40
2018-12-15T03:48:20.539Z,10.30
2018-12-15T03:49:20.395Z,9.90
2018-12-15T03:50:20.377Z,9.90
2018-12-15T03:51:20.370Z,10.20
2018-12-15T03:52:20.360Z,10.40
2018-12-15T03:53:20.349Z,9.90
2018-12-15T03:54:20.348Z,10.20
2018-12-15T03:55:20.339Z,9.90
2018-12-15T03:56:20.318Z,10.40
2018-12-15T03:57:20.306Z,10.30
2018-12-15T03:58:20.299Z,9.90
2018-12-15T03:59:20.292Z,10.20
2018-12-15T04:00:20.274Z,10.50
2018-12-15T04:01:20.268Z,9.90
2018-12-15T04:02:20.254Z,9.80
2018-12-15T04:03:20.241Z,10.00
2018-12-15T04:04:20.245Z,9.90
2018-12-15T04:05:20.221Z,10.10
2018-12-15T04:06:20.209Z,10.40
2018-12-15T04:07:20.204Z,10.40
2018-12-15T04:08:20.185Z,10.60
2018-12-15T04:09:20.185Z,10.70
2018-12-15T04:10:20.168Z,10.00
2018-12-15T04:11:20.155Z,10.80
2018-12-15T04:12:20.148Z,10.10
2018-12-15T04:13:20.134Z,10.30
2018-12-15T04:14:20.143Z,10.30
2018-12-15T04:15:20.113Z,10.40
2018-12-15T04:16:20.103Z,10.00
2018-12-15T04:17:20.099Z,10.10
2018-12-15T04:18:20.091Z,10.10
2018-12-15T04:19:20.085Z,9.70
2018-12-15T04:20:20.059Z,10.00
2018-12-15T04:21:20.052Z,10.40
2018-12-15T04:22:20.041Z,9.90
2018-12-15T04:23:20.030Z,10.00
2018-12-15T04:24:20.025Z,9.90
2018-12-15T04:25:20.009Z,9.60
2018-12-15T04:26:20.000Z,10.10
2018-12-15T04:27:19.985Z,9.60
2018-12-15T04:28:19.975Z,10.10
2018-12-15T04:29:19.974Z,9.90
2018-12-15T04:30:19.957Z,10.00
2018-12-15T04:31:19.947Z,10.20
2018-12-15T04:32:19.935Z,10.50
2018-12-15T04:33:19.922Z,10.50
2018-12-15T04:34:19.925Z,10.90
2018-12-15T04:35:19.903Z,10.20
2018-12-15T04:36:19.892Z,10.90
2018-12-15T04:37:19.880Z,10.60
2018-12-15T04:38:19.868Z,10.90
2018-12-15T04:39:19.866Z,10.30
2018-12-15T04:40:19.847Z,10.70
2018-12-15T04:41:19.837Z,10.50
2018-12-15T04:42:19.828Z,10.80
2018-12-15T04:43:19.829Z,10.40
2018-12-15T04:44:19.845Z,10.10
2018-12-15T04:45:19.797Z,11.00
2018-12-15T04:46:19.796Z,10.20
2018-12-15T04:47:19.772Z,10.40
2018-12-15T04:48:19.765Z,10.80
2018-12-15T04:49:19.753Z,11.20
2018-12-15T04:50:19.748Z,10.30
2018-12-15T04:51:19.734Z,10.50
2018-12-15T04:52:19.721Z,10.50
2018-12-15T04:53:19.710Z,11.00
2018-12-15T04:54:19.703Z,11.00
2018-12-15T04:55:19.695Z,11.00
2018-12-15T04:56:19.677Z,10.00
2018-12-15T04:57:19.665Z,10.50
2018-12-15T04:58:19.659Z,10.40
2018-12-15T04:59:19.645Z,10.30
2018-12-15T05:00:19.646Z,10.40
2018-12-15T05:01:19.627Z,10.60
2018-12-15T05:02:19.616Z,10.50
2018-12-15T05:03:19.610Z,9.90
2018-12-15T05:04:19.593Z,10.30
2018-12-15T05:05:19.589Z,10.50
2018-12-15T05:06:19.570Z,10.60
2018-12-15T05:07:19.563Z,10.00
2018-12-15T05:08:19.549Z,10.20
2018-12-15T05:09:19.536Z,10.40
2018-12-15T05:10:19.535Z,9.80
2018-12-15T05:11:19.521Z,10.20
2018-12-15T05:12:19.503Z,10.30
2018-12-15T05:13:19.494Z,10.20
2018-12-15T05:14:19.485Z,10.60
2018-12-15T05:15:19.480Z,10.30
2018-12-15T05:16:19.463Z,10.30
2018-12-15T05:17:19.455Z,10.30
2018-12-15T05:18:19.442Z,10.50
2018-12-15T05:19:19.437Z,10.20
2018-12-15T05:20:19.429Z,10.60
2018-12-15T05:21:19.410Z,10.30
2018-12-15T05:22:19.400Z,10.90
2018-12-15T05:23:19.395Z,10.60
2018-12-15T05:24:19.377Z,10.40
2018-12-15T05:25:19.377Z,10.80
2018-12-15T05:26:19.361Z,10.90
2018-12-15T05:27:19.345Z,11.00
2018-12-15T05:28:19.339Z,10.80
2018-12-15T05:29:19.328Z,11.10
2018-12-15T05:30:19.343Z,10.20
2018-12-15T05:31:19.302Z,11.10
2018-12-15T05:32:19.292Z,10.60
2018-12-15T05:33:19.282Z,10.50
2018-12-15T05:34:19.269Z,11.10
2018-12-15T05:35:19.267Z,11.00
2018-12-15T05:36:19.257Z,10.90
2018-12-15T05:37:19.239Z,11.20
2018-12-15T05:38:19.229Z,11.00
2018-12-15T05:39:19.217Z,11.40
2018-12-15T05:40:19.207Z,11.20
2018-12-15T05:41:19.210Z,10.90
2018-12-15T05:42:19.184Z,11.40
2018-12-15T05:43:19.179Z,11.60
2018-12-15T05:44:19.165Z,10.60
2018-12-15T05:45:19.154Z,10.80
2018-12-15T05:46:19.154Z,11.80
2018-12-15T05:47:19.131Z,11.20
2018-12-15T05:48:24.924Z,11.60
2018-12-15T05:49:20.114Z,11.60
2018-12-15T05:50:19.097Z,11.70
2018-12-15T05:51:19.100Z,11.60
2018-12-15T05:52:19.080Z,11.90
2018-12-15T05:53:19.066Z,11.80
2018-12-15T05:54:19.056Z,11.50
2018-12-15T05:55:20.035Z,11.80
2018-12-15T05:56:19.045Z,11.80
2018-12-15T05:57:19.025Z,12.00
2018-12-15T05:58:19.017Z,11.20
2018-12-15T05:59:19.002Z,11.30
2018-12-15T06:00:18.994Z,11.30
2018-12-15T06:01:18.995Z,11.10
2018-12-15T06:02:18.973Z,11.40
2018-12-15T06:03:18.964Z,11.70
2018-12-15T06:04:18.955Z,11.90
2018-12-15T06:05:18.938Z,12.00
2018-12-15T06:06:18.962Z,12.10
2018-12-15T06:07:18.917Z,12.40
2018-12-15T06:08:18.913Z,11.80
2018-12-15T06:09:18.895Z,11.90
2018-12-15T06:10:18.885Z,12.10
2018-12-15T06:11:18.876Z,11.70
2018-12-15T06:12:18.877Z,11.60
2018-12-15T06:13:18.853Z,12.00
2018-12-15T06:14:18.842Z,11.80
2018-12-15T06:15:18.839Z,12.00
2018-12-15T06:16:18.820Z,12.20
2018-12-15T06:17:18.829Z,11.80
2018-12-15T06:18:18.800Z,12.10
2018-12-15T06:19:18.790Z,11.80
2018-12-15T06:20:18.780Z,13.00
2018-12-15T06:21:18.770Z,12.00
2018-12-15T06:22:18.770Z,12.30
2018-12-15T06:23:18.746Z,12.80
2018-12-15T06:24:18.738Z,12.30
2018-12-15T06:25:18.726Z,12.00
2018-12-15T06:26:18.715Z,12.70
2018-12-15T06:27:18.713Z,12.80
2018-12-15T06:28:18.693Z,12.20
2018-12-15T06:29:18.683Z,12.40
2018-12-15T06:30:18.669Z,12.40
2018-12-15T06:31:18.661Z,12.90
2018-12-15T06:32:18.679Z,12.60
2018-12-15T06:33:18.641Z,12.60
2018-12-15T06:34:18.633Z,12.80
2018-12-15T06:35:18.615Z,12.50
2018-12-15T06:36:18.613Z,12.70
2018-12-15T06:37:18.596Z,12.80
2018-12-15T06:38:18.599Z,12.30
2018-12-15T06:39:18.574Z,13.20
2018-12-15T06:40:18.565Z,12.50
2018-12-15T06:41:18.553Z,13.30
2018-12-15T06:42:18.542Z,12.60
2018-12-15T06:43:18.546Z,13.40
2018-12-15T06:44:18.521Z,12.60
2018-12-15T06:45:18.509Z,12.70
2018-12-15T06:46:18.498Z,12.80
2018-12-15T06:47:18.490Z,13.10
2018-12-15T06:48:18.486Z,13.30
2018-12-15T06:49:18.468Z,12.50
2018-12-15T06:50:18.458Z,13.20
2018-12-15T06:51:18.447Z,13.20
2018-12-15T06:52:18.434Z,13.50
2018-12-15T06:53:18.431Z,13.50
2018-12-15T06:54:18.412Z,13.60
2018-12-15T06:55:18.399Z,12.80
2018-12-15T06:56:18.394Z,13.60
2018-12-15T06:57:18.382Z,13.70
2018-12-15T06:58:18.378Z,13.40
2018-12-15T06:59:18.358Z,13.30
2018-12-15T07:00:18.350Z,13.30
2018-12-15T07:01:18.338Z,13.30
2018-12-15T07:02:18.330Z,13.20
2018-12-15T07:03:18.321Z,13.60
2018-12-15T07:04:18.306Z,13.30
2018-12-15T07:05:18.294Z,13.90
2018-12-15T07:06:18.282Z,13.90
2018-12-15T07:07:18.274Z,13.70
2018-12-15T07:08:18.271Z,13.80
2018-12-15T07:09:18.249Z,14.00
2018-12-15T07:10:18.240Z,13.70
2018-12-15T07:11:18.229Z,13.90
2018-12-15T07:12:18.224Z,13.80
2018-12-15T07:13:18.218Z,14.20
2018-12-15T07:14:18.197Z,13.40
2018-12-15T07:15:18.186Z,14.10
2018-12-15T07:16:18.179Z,14.00
2018-12-15T07:17:18.164Z,14.20
2018-12-15T07:18:18.192Z,14.00
2018-12-15T07:19:18.142Z,13.80
2018-12-15T07:20:18.133Z,13.90
2018-12-15T07:21:18.122Z,14.00
2018-12-15T07:22:18.118Z,13.70
2018-12-15T07:23:18.102Z,13.90
2018-12-15T07:24:18.102Z,14.20
2018-12-15T07:25:18.084Z,14.00
2018-12-15T07:26:18.072Z,14.10
2018-12-15T07:27:18.060Z,13.70
2018-12-15T07:28:18.053Z,13.80
2018-12-15T07:29:18.049Z,14.00
2018-12-15T07:30:18.027Z,14.60
2018-12-15T07:31:18.018Z,14.30
2018-12-15T07:32:18.010Z,14.60
2018-12-15T07:33:17.997Z,14.10
2018-12-15T07:34:17.995Z,14.70
2018-12-15T07:35:17.973Z,14.70
2018-12-15T07:36:17.965Z,13.80
2018-12-15T07:37:17.958Z,14.00
2018-12-15T07:38:17.941Z,14.50
2018-12-15T07:39:17.939Z,14.40
2018-12-15T07:40:17.921Z,13.70
2018-12-15T07:41:17.910Z,14.00
2018-12-15T07:42:17.899Z,14.50
2018-12-15T07:43:17.894Z,14.20
2018-12-15T07:44:17.904Z,14.30
2018-12-15T07:45:17.868Z,14.80
2018-12-15T07:46:17.857Z,15.20
2018-12-15T07:47:17.848Z,14.40
2018-12-15T07:48:17.838Z,13.50
2018-12-15T07:49:17.824Z,14.20
2018-12-15T07:50:17.819Z,14.10
2018-12-15T07:51:17.804Z,14.20
2018-12-15T07:52:17.792Z,13.90
2018-12-15T07:53:17.779Z,14.10
2018-12-15T07:54:17.768Z,14.50
2018-12-15T07:55:17.770Z,14.40
2018-12-15T07:56:17.749Z,14.70
2018-12-15T07:57:17.741Z,14.30
2018-12-15T07:58:17.727Z,14.10
2018-12-15T07:59:17.718Z,13.60
2018-12-15T08:00:17.714Z,14.30
2018-12-15T08:01:17.694Z,13.80
2018-12-15T08:02:17.694Z,14.40
2018-12-15T08:03:17.674Z,14.10
2018-12-15T08:04:17.662Z,14.10
2018-12-15T08:05:17.662Z,13.60
2018-12-15T08:06:17.646Z,14.80
2018-12-15T08:07:17.633Z,14.40
2018-12-15T08:08:17.621Z,13.90
2018-12-15T08:09:17.609Z,14.20
2018-12-15T08:10:17.615Z,14.90
2018-12-15T08:11:17.588Z,13.90
2018-12-15T08:12:17.580Z,13.90
2018-12-15T08:13:17.570Z,14.20
2018-12-15T08:14:17.560Z,14.20
2018-12-15T08:15:17.559Z,14.30
2018-12-15T08:16:17.537Z,14.70
2018-12-15T08:17:17.524Z,13.80
2018-12-15T08:18:17.519Z,13.90
2018-12-15T08:19:17.504Z,13.90
2018-12-15T08:20:17.502Z,14.70
2018-12-15T08:21:17.481Z,14.00
2018-12-15T08:22:17.472Z,14.30
2018-12-15T08:23:17.463Z,13.70
2018-12-15T08:24:17.455Z,13.80
2018-12-15T08:25:17.448Z,14.20
2018-12-15T08:26:17.430Z,13.90
2018-12-15T08:27:17.418Z,13.40
2018-12-15T08:28:17.411Z,14.50
2018-12-15T08:29:17.397Z,14.90
2018-12-15T08:30:17.424Z,14.70
2018-12-15T08:31:17.377Z,17.50
2018-12-15T08:32:17.373Z,22.50
2018-12-15T08:33:17.353Z,30.90
2018-12-15T08:34:17.346Z,21.90
2018-12-15T08:35:17.334Z,27.10
2018-12-15T08:36:17.332Z,18.90
2018-12-15T08:37:17.309Z,17.30
2018-12-15T08:38:17.302Z,16.20
2018-12-15T08:39:17.290Z,16.30
2018-12-15T08:40:17.278Z,16.20
2018-12-15T08:41:17.279Z,17.10
2018-12-15T08:42:17.258Z,15.90
2018-12-15T08:43:17.246Z,15.70
2018-12-15T08:44:17.237Z,15.10
2018-12-15T08:45:17.225Z,15.50
2018-12-15T08:46:17.223Z,15.30
2018-12-15T08:47:17.207Z,15.60
2018-12-15T08:48:17.194Z,15.80
2018-12-15T08:49:17.183Z,14.90
2018-12-15T08:50:17.169Z,15.20
2018-12-15T08:51:17.168Z,15.00
2018-12-15T08:52:17.152Z,14.90
2018-12-15T08:53:17.144Z,15.20
2018-12-15T08:54:17.128Z,15.00
2018-12-15T08:55:17.121Z,15.30
2018-12-15T08:56:17.114Z,15.50
2018-12-15T08:57:17.100Z,15.20
2018-12-15T08:58:17.089Z,15.80
2018-12-15T08:59:17.074Z,16.00
2018-12-15T09:00:17.064Z,15.90
2018-12-15T09:01:17.060Z,15.40
2018-12-15T09:02:17.048Z,15.40
2018-12-15T09:03:17.030Z,15.10
2018-12-15T09:04:17.021Z,15.60
2018-12-15T09:05:17.012Z,15.10
2018-12-15T09:06:17.030Z,15.20
2018-12-15T09:07:16.988Z,15.60
2018-12-15T09:08:16.977Z,15.90
2018-12-15T09:09:16.970Z,15.60
2018-12-15T09:10:16.959Z,15.90
2018-12-15T09:11:16.946Z,15.30
2018-12-15T09:12:16.944Z,15.20
2018-12-15T09:13:16.924Z,15.50
2018-12-15T09:14:16.914Z,16.30
2018-12-15T09:15:16.902Z,15.50
2018-12-15T09:16:16.895Z,15.90
2018-12-15T09:17:16.896Z,16.40
2018-12-15T09:18:16.874Z,15.90
2018-12-15T09:19:16.859Z,15.20
2018-12-15T09:20:16.852Z,15.40
2018-12-15T09:21:16.839Z,16.40
2018-12-15T09:22:16.835Z,15.40
2018-12-15T09:23:16.818Z,15.40
2018-12-15T09:24:16.807Z,15.20
2018-12-15T09:25:16.797Z,15.80
2018-12-15T09:26:16.787Z,15.70
2018-12-15T09:27:16.783Z,15.90
2018-12-15T09:28:16.765Z,15.50
2018-12-15T09:29:16.752Z,16.00
2018-12-15T09:30:16.746Z,16.00
2018-12-15T09:31:16.731Z,16.50
2018-12-15T09:32:16.778Z,16.40
2018-12-15T09:33:16.712Z,16.50
2018-12-15T09:34:16.703Z,16.50
2018-12-15T09:35:16.689Z,16.90
2018-12-15T09:36:16.679Z,16.60
2018-12-15T09:37:16.670Z,16.80
2018-12-15T09:38:16.668Z,16.80
2018-12-15T09:39:16.647Z,16.90
2018-12-15T09:40:16.644Z,17.20
2018-12-15T09:41:16.627Z,17.00
2018-12-15T09:42:16.616Z,17.10
2018-12-15T09:43:16.613Z,16.90
2018-12-15T09:44:16.596Z,17.00
2018-12-15T09:45:16.583Z,16.60
2018-12-15T09:46:16.576Z,17.20
2018-12-15T09:47:16.562Z,17.10
2018-12-15T09:48:16.565Z,17.20
2018-12-15T09:49:17.932Z,17.20
2018-12-15T09:50:16.532Z,17.70
2018-12-15T09:51:16.520Z,16.80
2018-12-15T09:52:16.507Z,17.60
2018-12-15T09:53:16.509Z,17.20
2018-12-15T09:54:16.488Z,18.70
2018-12-15T09:55:16.476Z,18.00
2018-12-15T09:56:16.467Z,18.80
2018-12-15T09:57:16.456Z,17.70
2018-12-15T09:58:16.454Z,17.90
2018-12-15T09:59:16.436Z,18.40
2018-12-15T10:00:16.424Z,18.50
2018-12-15T10:01:16.416Z,17.80
2018-12-15T10:02:16.401Z,18.30
2018-12-15T10:03:16.400Z,19.00
2018-12-15T10:04:16.381Z,18.20
2018-12-15T10:05:16.368Z,18.40
2018-12-15T10:06:16.358Z,18.60
2018-12-15T10:07:16.346Z,18.70
2018-12-15T10:08:16.345Z,18.20
2018-12-15T10:09:16.332Z,18.40
2018-12-15T10:10:16.321Z,18.50
2018-12-15T10:11:16.305Z,19.20
2018-12-15T10:12:16.294Z,18.80
2018-12-15T10:13:16.290Z,19.10
2018-12-15T10:14:16.274Z,18.50
2018-12-15T10:15:16.263Z,18.70
2018-12-15T10:16:16.250Z,18.90
2018-12-15T10:17:16.243Z,19.40
2018-12-15T10:18:16.425Z,19.20
2018-12-15T10:19:16.220Z,19.20
2018-12-15T10:20:16.211Z,18.90
2018-12-15T10:21:16.199Z,19.20
2018-12-15T10:22:16.191Z,22.10
2018-12-15T10:23:16.178Z,19.90
2018-12-15T10:24:16.176Z,19.60
2018-12-15T10:25:16.157Z,20.50
2018-12-15T10:26:16.145Z,22.80
2018-12-15T10:27:16.136Z,21.50
2018-12-15T10:28:16.125Z,19.80
2018-12-15T10:29:16.120Z,19.50
2018-12-15T10:30:16.102Z,20.20
2018-12-15T10:31:16.092Z,19.40
2018-12-15T10:32:16.083Z,20.30
2018-12-15T10:33:16.074Z,19.90
2018-12-15T10:34:16.068Z,20.50
2018-12-15T10:35:16.108Z,19.10
2018-12-15T10:36:16.039Z,19.60
2018-12-15T10:37:16.026Z,19.20
2018-12-15T10:38:16.018Z,20.60
2018-12-15T10:39:16.015Z,19.50
2018-12-15T10:40:15.996Z,20.50
2018-12-15T10:41:15.985Z,20.20
2018-12-15T10:42:16.235Z,20.20
2018-12-15T10:43:15.964Z,19.60
2018-12-15T10:44:15.979Z,19.80
2018-12-15T10:45:15.941Z,20.10
2018-12-15T10:46:15.957Z,19.90
2018-12-15T10:47:15.922Z,20.00
2018-12-15T10:48:15.911Z,20.10
2018-12-15T10:49:15.903Z,19.20
2018-12-15T10:50:15.899Z,20.90
2018-12-15T10:51:15.879Z,28.00
2018-12-15T10:52:15.867Z,28.20
2018-12-15T10:53:15.856Z,20.20
2018-12-15T10:54:15.850Z,20.90
2018-12-15T10:55:15.845Z,20.60
2018-12-15T10:56:15.826Z,20.60
2018-12-15T10:57:15.815Z,20.00
2018-12-15T10:58:15.804Z,19.60
2018-12-15T10:59:15.794Z,19.20
2018-12-15T11:00:15.793Z,19.20
2018-12-15T11:01:15.773Z,19.30
2018-12-15T11:02:15.762Z,19.20
2018-12-15T11:03:15.752Z,19.40
2018-12-15T11:04:15.742Z,19.70
2018-12-15T11:05:15.741Z,18.80
2018-12-15T11:06:15.719Z,20.20
2018-12-15T11:07:15.710Z,19.40
2018-12-15T11:08:15.698Z,19.90
2018-12-15T11:09:15.689Z,19.50
2018-12-15T11:10:15.685Z,19.60
2018-12-15T11:11:15.667Z,19.70
2018-12-15T11:12:15.656Z,19.70
2018-12-15T11:13:15.647Z,19.90
2018-12-15T11:14:15.634Z,20.20
2018-12-15T11:15:15.633Z,20.10
2018-12-15T11:16:15.611Z,20.20
2018-12-15T11:17:15.602Z,20.40
2018-12-15T11:18:15.591Z,20.90
2018-12-15T11:19:15.585Z,20.70
2018-12-15T11:20:15.579Z,19.80
2018-12-15T11:21:15.560Z,19.40
2018-12-15T11:22:15.547Z,20.20
2018-12-15T11:23:15.538Z,19.70
2018-12-15T11:24:15.532Z,20.30
2018-12-15T11:25:15.525Z,19.90
2018-12-15T11:26:15.507Z,20.40
2018-12-15T11:27:15.495Z,20.60
2018-12-15T11:28:15.482Z,19.60
2018-12-15T11:29:15.474Z,19.80
2018-12-15T11:30:15.471Z,19.80
2018-12-15T11:31:15.452Z,20.50
2018-12-15T11:32:15.441Z,19.30
2018-12-15T11:33:15.431Z,20.40
2018-12-15T11:34:15.420Z,19.70
2018-12-15T11:35:15.419Z,20.30
2018-12-15T11:36:15.399Z,20.50
2018-12-15T11:37:15.388Z,20.40
2018-12-15T11:38:15.380Z,20.30
2018-12-15T11:39:15.371Z,21.00
2018-12-15T11:40:15.391Z,20.30
2018-12-15T11:41:15.347Z,20.40
2018-12-15T11:42:15.334Z,20.80
2018-12-15T11:43:15.325Z,20.60
2018-12-15T11:44:15.313Z,20.20
2018-12-15T11:45:15.303Z,20.50
2018-12-15T11:46:15.307Z,20.10
2018-12-15T11:47:15.282Z,19.60
2018-12-15T11:48:15.275Z,20.10
2018-12-15T11:49:15.260Z,19.90
2018-12-15T11:50:15.250Z,19.70
2018-12-15T11:51:15.249Z,20.80
2018-12-15T11:52:15.229Z,19.50
2018-12-15T11:53:15.219Z,20.10
2018-12-15T11:54:15.211Z,20.10
2018-12-15T11:55:15.197Z,20.70
2018-12-15T11:56:15.197Z,20.60
2018-12-15T11:57:15.175Z,20.80
2018-12-15T11:58:15.166Z,20.50
2018-12-15T11:59:15.157Z,21.20
2018-12-15T12:00:15.147Z,20.30
2018-12-15T12:01:15.138Z,20.60
2018-12-15T12:02:15.123Z,20.10
2018-12-15T12:03:15.110Z,20.50
2018-12-15T12:04:15.106Z,20.10
2018-12-15T12:05:15.095Z,20.10
2018-12-15T12:06:15.089Z,20.50
2018-12-15T12:07:15.069Z,20.40
2018-12-15T12:08:15.057Z,20.30
2018-12-15T12:09:15.047Z,20.40
2018-12-15T12:10:15.036Z,20.10
2018-12-15T12:11:15.035Z,20.20
2018-12-15T12:12:15.015Z,19.80
2018-12-15T12:13:15.006Z,20.60
2018-12-15T12:14:14.992Z,20.60
2018-12-15T12:15:14.983Z,20.40
2018-12-15T12:16:14.982Z,20.30
2018-12-15T12:17:14.961Z,20.70
2018-12-15T12:18:14.951Z,19.90
2018-12-15T12:19:14.940Z,20.70
2018-12-15T12:20:14.930Z,21.20
2018-12-15T12:21:14.948Z,20.50
2018-12-15T12:22:14.910Z,21.20
2018-12-15T12:23:14.902Z,19.80
2018-12-15T12:24:14.887Z,20.30
2018-12-15T12:25:14.876Z,21.00
2018-12-15T12:26:14.865Z,20.40
2018-12-15T12:27:14.864Z,21.30
2018-12-15T12:28:14.844Z,20.80
2018-12-15T12:29:14.837Z,20.90
2018-12-15T12:30:14.825Z,21.30
2018-12-15T12:31:14.813Z,21.00
2018-12-15T12:32:14.811Z,21.70
2018-12-15T12:33:14.792Z,21.50
2018-12-15T12:34:14.843Z,21.40
2018-12-15T12:35:14.774Z,20.80
2018-12-15T12:36:14.760Z,22.30
2018-12-15T12:37:14.758Z,21.40
2018-12-15T12:38:14.738Z,21.10
2018-12-15T12:39:14.732Z,21.60
2018-12-15T12:40:14.723Z,21.60
2018-12-15T12:41:14.707Z,21.50
2018-12-15T12:42:14.703Z,21.50
2018-12-15T12:43:14.684Z,20.90
2018-12-15T12:44:14.674Z,21.10
2018-12-15T12:45:14.665Z,21.60
2018-12-15T12:46:14.654Z,21.80
2018-12-15T12:47:14.655Z,21.50
2018-12-15T12:48:14.634Z,21.10
2018-12-15T12:49:14.626Z,21.30
2018-12-15T12:50:14.610Z,21.20
2018-12-15T12:51:14.599Z,21.40
2018-12-15T12:52:14.599Z,21.80
2018-12-15T12:53:14.581Z,21.80